sensor_id;sensor_type;location;lat;lon;timestamp;P1;durP1;ratioP1;P2;durP2;ratioP2
69485;SDS011;56677;51.710;5.366;2023-02-28T06:56:03;3.38;;;1.92;;
69485;SDS011;56677;51.710;5.366;2023-02-28T06:58:28;3.78;;;1.80;;
69485;SDS011;56677;51.710;5.366;2023-02-28T07:00:54;3.53;;;1.83;;
69485;SDS011;56677;51.710;5.366;2023-02-28T07:03:19;3.67;;;1.80;;
69485;SDS011;56677;51.710;5.366;2023-02-28T07:05:44;3.03;;;1.97;;
69485;SDS011;56677;51.710;5.366;2023-02-28T07:08:10;2.57;;;1.43;;
69485;SDS011;56677;51.710;5.366;2023-02-28T07:10:38;2.43;;;1.70;;
69485;SDS011;56677;51.710;5.366;2023-02-28T07:13:04;4.45;;;1.55;;
69485;SDS011;56677;51.710;5.366;2023-02-28T07:15:29;4.50;;;2.00;;
69485;SDS011;56677;51.710;5.366;2023-02-28T07:17:54;4.22;;;1.88;;
69485;SDS011;56677;51.710;5.366;2023-02-28T07:20:19;3.63;;;1.88;;
69485;SDS011;56677;51.710;5.366;2023-02-28T07:22:44;4.80;;;2.10;;
69485;SDS011;56677;51.710;5.366;2023-02-28T07:25:09;4.28;;;1.80;;
69485;SDS011;56677;51.710;5.366;2023-02-28T07:27:34;9.35;;;2.35;;
69485;SDS011;56677;51.710;5.366;2023-02-28T07:29:59;8.73;;;2.47;;
69485;SDS011;56677;51.710;5.366;2023-02-28T07:32:25;5.15;;;1.90;;
69485;SDS011;56677;51.710;5.366;2023-02-28T07:34:50;6.75;;;2.22;;
69485;SDS011;56677;51.710;5.366;2023-02-28T07:37:15;7.35;;;2.00;;
69485;SDS011;56677;51.710;5.366;2023-02-28T07:39:40;7.87;;;2.37;;
69485;SDS011;56677;51.710;5.366;2023-02-28T07:42:05;5.37;;;2.10;;
69485;SDS011;56677;51.710;5.366;2023-02-28T07:44:30;6.30;;;2.10;;
69485;SDS011;56677;51.710;5.366;2023-02-28T07:46:56;5.47;;;2.07;;
69485;SDS011;56677;51.710;5.366;2023-02-28T07:49:21;5.00;;;1.90;;
69485;SDS011;56677;51.710;5.366;2023-02-28T07:51:46;5.07;;;2.13;;
69485;SDS011;56677;51.710;5.366;2023-02-28T07:54:11;5.38;;;1.80;;
69485;SDS011;56677;51.710;5.366;2023-02-28T07:56:36;5.40;;;1.70;;
69485;SDS011;56677;51.710;5.366;2023-02-28T07:59:01;3.70;;;1.42;;
69485;SDS011;56677;51.710;5.366;2023-02-28T08:01:26;3.13;;;1.73;;
69485;SDS011;56677;51.710;5.366;2023-02-28T08:03:51;5.68;;;2.28;;
69485;SDS011;56677;51.710;5.366;2023-02-28T08:06:20;3.88;;;1.80;;
69485;SDS011;56677;51.710;5.366;2023-02-28T08:08:46;4.47;;;1.83;;
69485;SDS011;56677;51.710;5.366;2023-02-28T08:11:11;5.37;;;2.10;;
69485;SDS011;56677;51.710;5.366;2023-02-28T08:13:36;3.50;;;1.80;;
69485;SDS011;56677;51.710;5.366;2023-02-28T08:16:02;4.93;;;1.80;;
69485;SDS011;56677;51.710;5.366;2023-02-28T08:18:27;3.83;;;1.60;;
69485;SDS011;56677;51.710;5.366;2023-02-28T08:20:52;4.10;;;1.90;;
69485;SDS011;56677;51.710;5.366;2023-02-28T08:23:17;3.58;;;1.70;;
69485;SDS011;56677;51.710;5.366;2023-02-28T08:25:42;4.50;;;1.83;;
69485;SDS011;56677;51.710;5.366;2023-02-28T08:28:07;3.40;;;1.80;;
69485;SDS011;56677;51.710;5.366;2023-02-28T08:30:32;5.22;;;1.65;;
69485;SDS011;56677;51.710;5.366;2023-02-28T08:32:58;4.22;;;2.00;;
69485;SDS011;56677;51.710;5.366;2023-02-28T08:35:23;2.80;;;1.83;;
69485;SDS011;56677;51.710;5.366;2023-02-28T08:37:48;5.28;;;1.70;;
69485;SDS011;56677;51.710;5.366;2023-02-28T08:40:13;2.80;;;1.60;;
69485;SDS011;56677;51.710;5.366;2023-02-28T08:42:39;3.95;;;1.55;;
69485;SDS011;56677;51.710;5.366;2023-02-28T08:45:04;2.95;;;1.55;;
69485;SDS011;56677;51.710;5.366;2023-02-28T08:47:29;2.70;;;1.60;;
69485;SDS011;56677;51.710;5.366;2023-02-28T08:49:54;4.40;;;1.83;;
69485;SDS011;56677;51.710;5.366;2023-02-28T08:52:19;2.72;;;1.42;;
69485;SDS011;56677;51.710;5.366;2023-02-28T08:54:45;3.30;;;1.57;;
69485;SDS011;56677;51.710;5.366;2023-02-28T08:57:10;6.10;;;2.10;;
69485;SDS011;56677;51.710;5.366;2023-02-28T08:59:35;4.53;;;1.60;;
69485;SDS011;56677;51.710;5.366;2023-02-28T09:02:00;3.63;;;1.42;;
69485;SDS011;56677;51.710;5.366;2023-02-28T09:04:25;3.92;;;1.50;;
69485;SDS011;56677;51.710;5.366;2023-02-28T09:06:50;3.35;;;1.75;;
69485;SDS011;56677;51.710;5.366;2023-02-28T09:09:15;3.25;;;1.50;;
69485;SDS011;56677;51.710;5.366;2023-02-28T09:11:41;3.77;;;1.43;;
69485;SDS011;56677;51.710;5.366;2023-02-28T09:14:06;3.87;;;1.60;;
69485;SDS011;56677;51.710;5.366;2023-02-28T09:16:31;3.10;;;1.88;;
69485;SDS011;56677;51.710;5.366;2023-02-28T09:18:57;2.83;;;1.40;;
69485;SDS011;56677;51.710;5.366;2023-02-28T09:21:22;2.37;;;1.57;;
69485;SDS011;56677;51.710;5.366;2023-02-28T09:23:48;3.27;;;1.60;;
69485;SDS011;56677;51.710;5.366;2023-02-28T09:26:14;3.40;;;1.67;;
69485;SDS011;56677;51.710;5.366;2023-02-28T09:28:40;2.95;;;1.67;;
69485;SDS011;56677;51.710;5.366;2023-02-28T09:31:05;3.63;;;1.80;;
69485;SDS011;56677;51.710;5.366;2023-02-28T09:33:30;3.20;;;1.53;;
69485;SDS011;56677;51.710;5.366;2023-02-28T09:35:59;2.80;;;1.33;;
69485;SDS011;56677;51.710;5.366;2023-02-28T09:38:24;3.20;;;1.75;;
69485;SDS011;56677;51.710;5.366;2023-02-28T09:40:50;3.40;;;1.83;;
69485;SDS011;56677;51.710;5.366;2023-02-28T09:43:16;3.17;;;1.42;;
69485;SDS011;56677;51.710;5.366;2023-02-28T09:45:42;3.40;;;1.42;;
69485;SDS011;56677;51.710;5.366;2023-02-28T09:48:16;2.85;;;1.50;;
69485;SDS011;56677;51.710;5.366;2023-02-28T09:50:52;3.30;;;1.70;;
69485;SDS011;56677;51.710;5.366;2023-02-28T09:53:28;2.60;;;1.40;;
69485;SDS011;56677;51.710;5.366;2023-02-28T09:56:15;2.22;;;1.40;;
69485;SDS011;56677;51.710;5.366;2023-02-28T09:58:45;2.47;;;1.58;;
69485;SDS011;56677;51.710;5.366;2023-02-28T10:01:19;2.20;;;1.20;;
69485;SDS011;56677;51.710;5.366;2023-02-28T10:03:56;3.20;;;1.80;;
69485;SDS011;56677;51.710;5.366;2023-02-28T10:06:23;2.35;;;1.17;;
69485;SDS011;56677;51.710;5.366;2023-02-28T10:11:16;2.53;;;1.40;;
69485;SDS011;56677;51.710;5.366;2023-02-28T10:13:52;2.70;;;1.40;;
69485;SDS011;56677;51.710;5.366;2023-02-28T10:16:21;2.27;;;1.20;;
69485;SDS011;56677;51.710;5.366;2023-02-28T10:18:50;2.10;;;1.48;;
69485;SDS011;56677;51.710;5.366;2023-02-28T10:21:21;2.55;;;1.27;;
69485;SDS011;56677;51.710;5.366;2023-02-28T10:23:48;1.98;;;1.35;;
69485;SDS011;56677;51.710;5.366;2023-02-28T10:26:14;3.33;;;1.30;;
69485;SDS011;56677;51.710;5.366;2023-02-28T10:28:40;2.50;;;1.60;;
69485;SDS011;56677;51.710;5.366;2023-02-28T10:31:05;3.25;;;1.23;;
69485;SDS011;56677;51.710;5.366;2023-02-28T10:33:33;1.80;;;1.13;;
69485;SDS011;56677;51.710;5.366;2023-02-28T10:35:59;3.13;;;1.48;;
69485;SDS011;56677;51.710;5.366;2023-02-28T10:38:26;2.60;;;1.40;;
69485;SDS011;56677;51.710;5.366;2023-02-28T10:40:51;1.77;;;1.20;;
69485;SDS011;56677;51.710;5.366;2023-02-28T10:55:55;2.42;;;1.30;;
69485;SDS011;56677;51.710;5.366;2023-02-28T10:58:22;2.60;;;1.20;;
69485;SDS011;56677;51.710;5.366;2023-02-28T11:00:47;2.40;;;1.33;;
69485;SDS011;56677;51.710;5.366;2023-02-28T11:03:28;2.10;;;1.53;;
69485;SDS011;56677;51.710;5.366;2023-02-28T11:05:53;2.35;;;1.20;;
69485;SDS011;56677;51.710;5.366;2023-02-28T11:08:19;2.80;;;1.53;;
69485;SDS011;56677;51.710;5.366;2023-02-28T11:10:44;1.90;;;1.40;;
69485;SDS011;56677;51.710;5.366;2023-02-28T11:13:16;2.15;;;1.25;;
69485;SDS011;56677;51.710;5.366;2023-02-28T11:15:42;2.63;;;1.25;;
69485;SDS011;56677;51.710;5.366;2023-02-28T11:20:47;2.90;;;1.30;;
69485;SDS011;56677;51.710;5.366;2023-02-28T11:23:13;2.70;;;1.20;;
69485;SDS011;56677;51.710;5.366;2023-02-28T11:25:39;2.55;;;1.45;;
69485;SDS011;56677;51.710;5.366;2023-02-28T11:28:05;2.53;;;1.00;;
69485;SDS011;56677;51.710;5.366;2023-02-28T11:32:59;2.05;;;1.13;;
69485;SDS011;56677;51.710;5.366;2023-02-28T11:35:34;2.47;;;1.40;;
69485;SDS011;56677;51.710;5.366;2023-02-28T11:38:01;2.40;;;1.20;;
69485;SDS011;56677;51.710;5.366;2023-02-28T11:43:01;2.00;;;1.20;;
69485;SDS011;56677;51.710;5.366;2023-02-28T11:45:38;3.15;;;1.60;;
69485;SDS011;56677;51.710;5.366;2023-02-28T11:48:10;3.03;;;1.40;;
69485;SDS011;56677;51.710;5.366;2023-02-28T11:58:44;2.40;;;1.45;;
69485;SDS011;56677;51.710;5.366;2023-02-28T12:09:03;1.65;;;1.15;;
69485;SDS011;56677;51.710;5.366;2023-02-28T12:19:13;2.28;;;1.38;;
69485;SDS011;56677;51.710;5.366;2023-02-28T12:21:44;2.85;;;1.30;;
69485;SDS011;56677;51.710;5.366;2023-02-28T12:24:24;1.80;;;1.13;;
69485;SDS011;56677;51.710;5.366;2023-02-28T12:26:53;2.20;;;1.10;;
69485;SDS011;56677;51.710;5.366;2023-02-28T12:29:21;2.53;;;1.27;;
69485;SDS011;56677;51.710;5.366;2023-02-28T12:32:23;3.17;;;1.40;;
69485;SDS011;56677;51.710;5.366;2023-02-28T12:34:41;2.90;;;1.10;;
69485;SDS011;56677;51.710;5.366;2023-02-28T12:37:17;3.53;;;1.35;;
69485;SDS011;56677;51.710;5.366;2023-02-28T12:39:45;2.20;;;1.10;;
69485;SDS011;56677;51.710;5.366;2023-02-28T12:42:12;2.97;;;1.38;;
69485;SDS011;56677;51.710;5.366;2023-02-28T12:44:44;6.78;;;1.67;;
69485;SDS011;56677;51.710;5.366;2023-02-28T12:47:12;3.53;;;1.23;;
69485;SDS011;56677;51.710;5.366;2023-02-28T12:49:58;3.95;;;1.23;;
69485;SDS011;56677;51.710;5.366;2023-02-28T12:52:34;2.77;;;1.10;;
69485;SDS011;56677;51.710;5.366;2023-02-28T12:55:15;2.83;;;1.30;;
69485;SDS011;56677;51.710;5.366;2023-02-28T13:00:16;2.92;;;1.08;;
69485;SDS011;56677;51.710;5.366;2023-02-28T13:02:52;3.42;;;1.45;;
69485;SDS011;56677;51.710;5.366;2023-02-28T13:10:43;2.50;;;1.33;;
69485;SDS011;56677;51.710;5.366;2023-02-28T13:13:13;2.38;;;1.40;;
69485;SDS011;56677;51.710;5.366;2023-02-28T13:15:39;3.30;;;1.50;;
69485;SDS011;56677;51.710;5.366;2023-02-28T13:18:04;3.60;;;1.10;;
69485;SDS011;56677;51.710;5.366;2023-02-28T13:20:31;2.50;;;1.40;;
69485;SDS011;56677;51.710;5.366;2023-02-28T13:22:58;2.53;;;1.53;;
69485;SDS011;56677;51.710;5.366;2023-02-28T13:27:54;2.50;;;1.83;;
69485;SDS011;56677;51.710;5.366;2023-02-28T13:35:44;3.38;;;1.30;;
69485;SDS011;56677;51.710;5.366;2023-02-28T13:38:12;2.50;;;1.30;;
69485;SDS011;56677;51.710;5.366;2023-02-28T13:40:39;1.52;;;1.20;;
69485;SDS011;56677;51.710;5.366;2023-02-28T13:43:07;2.38;;;1.40;;
69485;SDS011;56677;51.710;5.366;2023-02-28T13:45:32;2.37;;;1.60;;
69485;SDS011;56677;51.710;5.366;2023-02-28T13:48:01;2.45;;;1.35;;
69485;SDS011;56677;51.710;5.366;2023-02-28T13:55:37;2.72;;;1.60;;
69485;SDS011;56677;51.710;5.366;2023-02-28T14:08:44;2.42;;;1.38;;
69485;SDS011;56677;51.710;5.366;2023-02-28T14:11:22;3.05;;;1.60;;
69485;SDS011;56677;51.710;5.366;2023-02-28T14:13:48;5.23;;;1.90;;
69485;SDS011;56677;51.710;5.366;2023-02-28T14:16:14;2.30;;;1.70;;
69485;SDS011;56677;51.710;5.366;2023-02-28T14:18:42;4.00;;;1.98;;
69485;SDS011;56677;51.710;5.366;2023-02-28T14:24:26;4.10;;;1.60;;
69485;SDS011;56677;51.710;5.366;2023-02-28T14:37:00;3.35;;;1.60;;
69485;SDS011;56677;51.710;5.366;2023-02-28T14:39:27;3.17;;;1.27;;
69485;SDS011;56677;51.710;5.366;2023-02-28T14:41:52;3.13;;;1.70;;
69485;SDS011;56677;51.710;5.366;2023-02-28T14:44:18;2.60;;;1.43;;
69485;SDS011;56677;51.710;5.366;2023-02-28T14:46:44;3.33;;;1.70;;
69485;SDS011;56677;51.710;5.366;2023-02-28T14:49:12;3.67;;;1.33;;
69485;SDS011;56677;51.710;5.366;2023-02-28T14:51:38;5.03;;;1.67;;
69485;SDS011;56677;51.710;5.366;2023-02-28T14:54:03;2.60;;;1.10;;
69485;SDS011;56677;51.710;5.366;2023-02-28T14:56:35;3.50;;;1.40;;
69485;SDS011;56677;51.710;5.366;2023-02-28T14:59:01;3.25;;;1.38;;
69485;SDS011;56677;51.710;5.366;2023-02-28T15:01:26;2.97;;;1.40;;
69485;SDS011;56677;51.710;5.366;2023-02-28T15:03:58;3.77;;;1.43;;
69485;SDS011;56677;51.710;5.366;2023-02-28T15:06:24;4.35;;;1.40;;
69485;SDS011;56677;51.710;5.366;2023-02-28T15:08:56;3.30;;;1.50;;
69485;SDS011;56677;51.710;5.366;2023-02-28T15:11:30;6.60;;;1.58;;
69485;SDS011;56677;51.710;5.366;2023-02-28T15:13:56;2.67;;;1.52;;
69485;SDS011;56677;51.710;5.366;2023-02-28T15:16:22;2.37;;;1.40;;
69485;SDS011;56677;51.710;5.366;2023-02-28T15:23:41;3.50;;;1.30;;
69485;SDS011;56677;51.710;5.366;2023-02-28T15:26:10;1.90;;;1.33;;
69485;SDS011;56677;51.710;5.366;2023-02-28T15:28:37;3.03;;;1.38;;
69485;SDS011;56677;51.710;5.366;2023-02-28T15:31:03;3.50;;;1.30;;
69485;SDS011;56677;51.710;5.366;2023-02-28T15:33:47;1.93;;;1.20;;
69485;SDS011;56677;51.710;5.366;2023-02-28T15:36:17;3.65;;;1.40;;
69485;SDS011;56677;51.710;5.366;2023-02-28T15:38:43;4.18;;;1.40;;
69485;SDS011;56677;51.710;5.366;2023-02-28T15:41:25;3.67;;;1.20;;
69485;SDS011;56677;51.710;5.366;2023-02-28T15:43:57;3.15;;;1.38;;
69485;SDS011;56677;51.710;5.366;2023-02-28T15:46:35;4.03;;;1.60;;
69485;SDS011;56677;51.710;5.366;2023-02-28T15:49:00;2.90;;;1.40;;
69485;SDS011;56677;51.710;5.366;2023-02-28T15:53:51;8.03;;;1.60;;
69485;SDS011;56677;51.710;5.366;2023-02-28T15:56:26;2.28;;;1.60;;
69485;SDS011;56677;51.710;5.366;2023-02-28T15:58:58;3.30;;;1.27;;
69485;SDS011;56677;51.710;5.366;2023-02-28T16:01:25;3.53;;;1.35;;
69485;SDS011;56677;51.710;5.366;2023-02-28T16:03:51;3.15;;;1.42;;
69485;SDS011;56677;51.710;5.366;2023-02-28T16:08:55;2.95;;;1.40;;
69485;SDS011;56677;51.710;5.366;2023-02-28T16:11:20;1.95;;;1.45;;
69485;SDS011;56677;51.710;5.366;2023-02-28T16:13:46;2.03;;;1.50;;
69485;SDS011;56677;51.710;5.366;2023-02-28T16:16:18;2.23;;;1.70;;
69485;SDS011;56677;51.710;5.366;2023-02-28T16:18:43;3.97;;;1.50;;
69485;SDS011;56677;51.710;5.366;2023-02-28T16:21:08;2.70;;;1.15;;
69485;SDS011;56677;51.710;5.366;2023-02-28T16:23:33;3.73;;;1.50;;
69485;SDS011;56677;51.710;5.366;2023-02-28T16:25:59;2.95;;;1.40;;
69485;SDS011;56677;51.710;5.366;2023-02-28T16:28:24;2.90;;;1.40;;
69485;SDS011;56677;51.710;5.366;2023-02-28T16:30:53;2.03;;;1.40;;
69485;SDS011;56677;51.710;5.366;2023-02-28T16:33:18;3.55;;;1.40;;
69485;SDS011;56677;51.710;5.366;2023-02-28T16:35:43;2.58;;;1.50;;
69485;SDS011;56677;51.710;5.366;2023-02-28T16:38:08;4.60;;;1.30;;
69485;SDS011;56677;51.710;5.366;2023-02-28T16:40:34;3.38;;;1.20;;
69485;SDS011;56677;51.710;5.366;2023-02-28T16:43:00;4.10;;;1.67;;
69485;SDS011;56677;51.710;5.366;2023-02-28T16:45:26;4.83;;;1.57;;
69485;SDS011;56677;51.710;5.366;2023-02-28T16:47:51;6.33;;;1.70;;
69485;SDS011;56677;51.710;5.366;2023-02-28T16:50:17;8.83;;;2.17;;
69485;SDS011;56677;51.710;5.366;2023-02-28T16:52:43;9.23;;;2.50;;
69485;SDS011;56677;51.710;5.366;2023-02-28T16:55:08;6.83;;;1.83;;
69485;SDS011;56677;51.710;5.366;2023-02-28T16:57:33;8.23;;;2.60;;
69485;SDS011;56677;51.710;5.366;2023-02-28T16:59:59;18.03;;;2.47;;
69485;SDS011;56677;51.710;5.366;2023-02-28T17:02:24;10.23;;;3.73;;
69485;SDS011;56677;51.710;5.366;2023-02-28T17:04:49;7.07;;;2.27;;
69485;SDS011;56677;51.710;5.366;2023-02-28T17:07:14;6.55;;;2.20;;
69485;SDS011;56677;51.710;5.366;2023-02-28T17:09:40;9.68;;;2.30;;
69485;SDS011;56677;51.710;5.366;2023-02-28T17:12:05;8.30;;;2.22;;
69485;SDS011;56677;51.710;5.366;2023-02-28T17:14:30;6.77;;;2.33;;
69485;SDS011;56677;51.710;5.366;2023-02-28T17:16:56;7.97;;;2.20;;
69485;SDS011;56677;51.710;5.366;2023-02-28T17:19:21;7.40;;;2.20;;
69485;SDS011;56677;51.710;5.366;2023-02-28T17:21:46;8.18;;;2.38;;
69485;SDS011;56677;51.710;5.366;2023-02-28T17:24:11;6.90;;;2.42;;
69485;SDS011;56677;51.710;5.366;2023-02-28T17:26:36;7.67;;;2.10;;
69485;SDS011;56677;51.710;5.366;2023-02-28T17:29:01;8.97;;;2.00;;
69485;SDS011;56677;51.710;5.366;2023-02-28T17:31:27;5.80;;;1.90;;
69485;SDS011;56677;51.710;5.366;2023-02-28T17:33:52;5.60;;;2.10;;
69485;SDS011;56677;51.710;5.366;2023-02-28T17:36:20;6.35;;;2.47;;
69485;SDS011;56677;51.710;5.366;2023-02-28T17:38:45;9.40;;;2.43;;
69485;SDS011;56677;51.710;5.366;2023-02-28T17:41:11;7.13;;;2.47;;
69485;SDS011;56677;51.710;5.366;2023-02-28T17:43:36;8.60;;;2.30;;
69485;SDS011;56677;51.710;5.366;2023-02-28T17:46:01;7.30;;;2.00;;
69485;SDS011;56677;51.710;5.366;2023-02-28T17:48:26;5.90;;;2.17;;
69485;SDS011;56677;51.710;5.366;2023-02-28T17:50:51;8.75;;;2.17;;
69485;SDS011;56677;51.710;5.366;2023-02-28T17:53:17;11.43;;;2.00;;
69485;SDS011;56677;51.710;5.366;2023-02-28T17:55:42;8.43;;;2.03;;
69485;SDS011;56677;51.710;5.366;2023-02-28T17:58:08;6.65;;;2.40;;
69485;SDS011;56677;51.710;5.366;2023-02-28T18:00:34;5.50;;;1.98;;
69485;SDS011;56677;51.710;5.366;2023-02-28T18:02:59;7.40;;;2.30;;
69485;SDS011;56677;51.710;5.366;2023-02-28T18:05:24;5.03;;;1.58;;
69485;SDS011;56677;51.710;5.366;2023-02-28T18:07:50;6.33;;;2.00;;
69485;SDS011;56677;51.710;5.366;2023-02-28T18:10:16;9.30;;;1.80;;
69485;SDS011;56677;51.710;5.366;2023-02-28T18:12:42;5.85;;;2.00;;
69485;SDS011;56677;51.710;5.366;2023-02-28T18:15:07;5.20;;;1.90;;
69485;SDS011;56677;51.710;5.366;2023-02-28T18:17:32;9.23;;;1.83;;
69485;SDS011;56677;51.710;5.366;2023-02-28T18:19:58;6.82;;;1.77;;
69485;SDS011;56677;51.710;5.366;2023-02-28T18:22:23;7.53;;;2.20;;
69485;SDS011;56677;51.710;5.366;2023-02-28T18:24:48;5.35;;;1.50;;
69485;SDS011;56677;51.710;5.366;2023-02-28T18:27:13;6.32;;;1.90;;
69485;SDS011;56677;51.710;5.366;2023-02-28T18:29:38;5.97;;;2.10;;
69485;SDS011;56677;51.710;5.366;2023-02-28T18:32:03;6.22;;;2.20;;
69485;SDS011;56677;51.710;5.366;2023-02-28T18:34:28;6.03;;;2.27;;
69485;SDS011;56677;51.710;5.366;2023-02-28T18:36:53;5.78;;;2.00;;
69485;SDS011;56677;51.710;5.366;2023-02-28T18:39:19;8.27;;;2.50;;
69485;SDS011;56677;51.710;5.366;2023-02-28T18:41:44;9.43;;;2.00;;
69485;SDS011;56677;51.710;5.366;2023-02-28T18:44:09;5.25;;;1.75;;
69485;SDS011;56677;51.710;5.366;2023-02-28T18:46:34;5.10;;;1.97;;
69485;SDS011;56677;51.710;5.366;2023-02-28T18:48:59;6.87;;;1.83;;
69485;SDS011;56677;51.710;5.366;2023-02-28T18:51:25;5.37;;;1.80;;
69485;SDS011;56677;51.710;5.366;2023-02-28T18:53:51;6.63;;;2.00;;
69485;SDS011;56677;51.710;5.366;2023-02-28T18:56:17;6.78;;;1.80;;
69485;SDS011;56677;51.710;5.366;2023-02-28T18:58:43;5.65;;;2.33;;
69485;SDS011;56677;51.710;5.366;2023-02-28T19:01:24;5.27;;;1.70;;
69485;SDS011;56677;51.710;5.366;2023-02-28T19:03:49;4.93;;;2.20;;
69485;SDS011;56677;51.710;5.366;2023-02-28T19:06:15;6.35;;;2.33;;
69485;SDS011;56677;51.710;5.366;2023-02-28T19:08:40;6.40;;;2.27;;
69485;SDS011;56677;51.710;5.366;2023-02-28T19:11:06;5.13;;;1.90;;
69485;SDS011;56677;51.710;5.366;2023-02-28T19:13:31;4.05;;;1.67;;
69485;SDS011;56677;51.710;5.366;2023-02-28T19:16:00;4.85;;;1.88;;
69485;SDS011;56677;51.710;5.366;2023-02-28T19:18:25;5.93;;;1.60;;
69485;SDS011;56677;51.710;5.366;2023-02-28T19:20:50;4.40;;;2.10;;
69485;SDS011;56677;51.710;5.366;2023-02-28T19:23:15;5.60;;;1.70;;
69485;SDS011;56677;51.710;5.366;2023-02-28T19:25:41;5.30;;;2.13;;
69485;SDS011;56677;51.710;5.366;2023-02-28T19:28:06;5.57;;;2.33;;
69485;SDS011;56677;51.710;5.366;2023-02-28T19:30:31;4.13;;;1.65;;
69485;SDS011;56677;51.710;5.366;2023-02-28T19:32:56;5.70;;;2.20;;
69485;SDS011;56677;51.710;5.366;2023-02-28T19:35:21;4.50;;;2.05;;
69485;SDS011;56677;51.710;5.366;2023-02-28T19:37:46;4.55;;;1.90;;
69485;SDS011;56677;51.710;5.366;2023-02-28T19:40:11;4.03;;;1.98;;
69485;SDS011;56677;51.710;5.366;2023-02-28T19:42:36;6.00;;;2.27;;
69485;SDS011;56677;51.710;5.366;2023-02-28T19:45:02;4.10;;;1.83;;
69485;SDS011;56677;51.710;5.366;2023-02-28T19:47:27;5.23;;;2.30;;
69485;SDS011;56677;51.710;5.366;2023-02-28T19:49:53;3.43;;;1.83;;
69485;SDS011;56677;51.710;5.366;2023-02-28T19:52:18;3.40;;;1.43;;
69485;SDS011;56677;51.710;5.366;2023-02-28T19:54:43;4.00;;;1.70;;
69485;SDS011;56677;51.710;5.366;2023-02-28T19:57:08;3.20;;;1.60;;
69485;SDS011;56677;51.710;5.366;2023-02-28T19:59:33;6.70;;;2.28;;
69485;SDS011;56677;51.710;5.366;2023-02-28T20:01:58;4.22;;;1.80;;
69485;SDS011;56677;51.710;5.366;2023-02-28T20:04:24;4.30;;;2.10;;
69485;SDS011;56677;51.710;5.366;2023-02-28T20:06:49;4.43;;;1.67;;
69485;SDS011;56677;51.710;5.366;2023-02-28T20:09:15;4.17;;;2.17;;
69485;SDS011;56677;51.710;5.366;2023-02-28T20:11:40;3.60;;;2.20;;
69485;SDS011;56677;51.710;5.366;2023-02-28T20:14:05;5.10;;;2.00;;
69485;SDS011;56677;51.710;5.366;2023-02-28T20:16:30;5.00;;;1.92;;
69485;SDS011;56677;51.710;5.366;2023-02-28T20:18:56;4.27;;;1.87;;
69485;SDS011;56677;51.710;5.366;2023-02-28T20:21:21;4.53;;;2.10;;
69485;SDS011;56677;51.710;5.366;2023-02-28T20:23:46;4.78;;;1.75;;
69485;SDS011;56677;51.710;5.366;2023-02-28T20:26:11;4.13;;;1.80;;
69485;SDS011;56677;51.710;5.366;2023-02-28T20:28:37;3.08;;;1.60;;
69485;SDS011;56677;51.710;5.366;2023-02-28T20:31:08;3.73;;;1.80;;
69485;SDS011;56677;51.710;5.366;2023-02-28T20:33:33;3.88;;;1.75;;
69485;SDS011;56677;51.710;5.366;2023-02-28T20:35:59;5.45;;;2.35;;
69485;SDS011;56677;51.710;5.366;2023-02-28T20:38:24;4.35;;;1.92;;
69485;SDS011;56677;51.710;5.366;2023-02-28T20:40:52;5.15;;;2.25;;
69485;SDS011;56677;51.710;5.366;2023-02-28T20:43:18;4.63;;;2.13;;
69485;SDS011;56677;51.710;5.366;2023-02-28T20:45:49;4.93;;;2.45;;
69485;SDS011;56677;51.710;5.366;2023-02-28T20:48:14;4.97;;;1.92;;
69485;SDS011;56677;51.710;5.366;2023-02-28T20:50:39;4.65;;;2.00;;
69485;SDS011;56677;51.710;5.366;2023-02-28T20:53:04;4.30;;;2.10;;
69485;SDS011;56677;51.710;5.366;2023-02-28T20:55:29;3.80;;;2.15;;
69485;SDS011;56677;51.710;5.366;2023-02-28T20:57:54;4.38;;;2.35;;
69485;SDS011;56677;51.710;5.366;2023-02-28T21:00:19;3.75;;;2.13;;
69485;SDS011;56677;51.710;5.366;2023-02-28T21:02:45;4.53;;;2.33;;
69485;SDS011;56677;51.710;5.366;2023-02-28T21:05:10;4.00;;;2.03;;
69485;SDS011;56677;51.710;5.366;2023-02-28T21:07:35;5.20;;;2.05;;
69485;SDS011;56677;51.710;5.366;2023-02-28T21:10:00;4.13;;;1.90;;
69485;SDS011;56677;51.710;5.366;2023-02-28T21:12:25;5.43;;;2.40;;
69485;SDS011;56677;51.710;5.366;2023-02-28T21:14:50;4.80;;;2.03;;
69485;SDS011;56677;51.710;5.366;2023-02-28T21:17:15;6.70;;;2.70;;
69485;SDS011;56677;51.710;5.366;2023-02-28T21:19:40;4.65;;;2.25;;
69485;SDS011;56677;51.710;5.366;2023-02-28T21:22:05;4.55;;;2.03;;
69485;SDS011;56677;51.710;5.366;2023-02-28T21:24:31;5.63;;;2.40;;
69485;SDS011;56677;51.710;5.366;2023-02-28T21:26:56;5.40;;;2.43;;
69485;SDS011;56677;51.710;5.366;2023-02-28T21:29:21;4.55;;;2.38;;
69485;SDS011;56677;51.710;5.366;2023-02-28T21:31:48;5.57;;;2.53;;
69485;SDS011;56677;51.710;5.366;2023-02-28T21:34:13;5.70;;;2.53;;
69485;SDS011;56677;51.710;5.366;2023-02-28T21:36:39;7.53;;;2.43;;
69485;SDS011;56677;51.710;5.366;2023-02-28T21:39:11;4.93;;;2.13;;
69485;SDS011;56677;51.710;5.366;2023-02-28T21:41:36;3.75;;;2.28;;
69485;SDS011;56677;51.710;5.366;2023-02-28T21:44:01;4.43;;;2.27;;
69485;SDS011;56677;51.710;5.366;2023-02-28T21:46:27;4.07;;;2.47;;
69485;SDS011;56677;51.710;5.366;2023-02-28T21:48:53;5.07;;;2.50;;
69485;SDS011;56677;51.710;5.366;2023-02-28T21:51:19;3.87;;;2.10;;
69485;SDS011;56677;51.710;5.366;2023-02-28T21:53:45;4.43;;;2.47;;
69485;SDS011;56677;51.710;5.366;2023-02-28T21:56:17;4.30;;;2.43;;
69485;SDS011;56677;51.710;5.366;2023-02-28T21:58:43;5.13;;;2.53;;
69485;SDS011;56677;51.710;5.366;2023-02-28T22:01:09;5.73;;;2.30;;
69485;SDS011;56677;51.710;5.366;2023-02-28T22:03:35;6.28;;;2.42;;
69485;SDS011;56677;51.710;5.366;2023-02-28T22:06:00;5.07;;;2.43;;
69485;SDS011;56677;51.710;5.366;2023-02-28T22:08:25;5.20;;;2.87;;
69485;SDS011;56677;51.710;5.366;2023-02-28T22:10:50;5.97;;;2.73;;
69485;SDS011;56677;51.710;5.366;2023-02-28T22:13:15;5.35;;;2.45;;
69485;SDS011;56677;51.710;5.366;2023-02-28T22:15:41;5.95;;;2.40;;
69485;SDS011;56677;51.710;5.366;2023-02-28T22:18:06;5.97;;;2.88;;
69485;SDS011;56677;51.710;5.366;2023-02-28T22:20:31;5.03;;;2.73;;
69485;SDS011;56677;51.710;5.366;2023-02-28T22:22:56;4.97;;;2.70;;
69485;SDS011;56677;51.710;5.366;2023-02-28T22:25:21;4.63;;;2.42;;
69485;SDS011;56677;51.710;5.366;2023-02-28T22:27:46;4.63;;;2.75;;
69485;SDS011;56677;51.710;5.366;2023-02-28T22:30:12;5.30;;;2.50;;
69485;SDS011;56677;51.710;5.366;2023-02-28T22:32:37;4.93;;;2.63;;
69485;SDS011;56677;51.710;5.366;2023-02-28T22:35:02;6.10;;;2.58;;
69485;SDS011;56677;51.710;5.366;2023-02-28T22:37:27;6.07;;;2.77;;
